Time;durP1;ratioP1;P1;durP2;ratioP2;P2;SDS_P1;SDS_P2;PMS_P1;PMS_P2;Temp;Humidity;BMP_temperature;BMP_pressure;BME280_temperature;BME280_humidity;BME280_pressure;Samples;Min_cycle;Max_cycle;Signal;HPM_P1;HPM_P2
2023/05/07 00:00:29;;;;;;;7.78;5.45;;;;;;;16.97;60.11;99712.63;4470914;32;27870;-90
2023/05/07 00:02:55;;;;;;;8.43;5.60;;;;;;;16.89;60.10;99705.19;4463740;32;20123;-90
2023/05/07 00:05:20;;;;;;;9.15;5.90;;;;;;;16.65;60.10;99709.22;4455635;32;20627;-91
2023/05/07 00:07:46;;;;;;;7.85;5.35;;;;;;;16.70;60.09;99707.19;4463370;32;20119;-91
2023/05/07 00:10:12;;;;;;;8.40;5.50;;;;;;;16.75;60.09;99721.75;4468880;32;20146;-90
2023/05/07 00:12:38;;;;;;;7.28;5.07;;;;;;;16.80;60.10;99717.09;4463183;32;20148;-88
2023/05/07 00:15:04;;;;;;;7.25;5.43;;;;;;;16.82;60.10;99717.84;4485519;32;20163;-89
2023/05/07 00:17:30;;;;;;;6.80;5.25;;;;;;;16.53;60.09;99713.38;4455621;32;20077;-88
2023/05/07 00:19:55;;;;;;;8.38;5.20;;;;;;;16.65;60.09;99715.31;4471068;32;20085;-89
2023/05/07 00:22:21;;;;;;;6.95;5.12;;;;;;;16.67;60.09;99713.47;4457701;32;20317;-89
2023/05/07 00:24:46;;;;;;;7.93;5.28;;;;;;;16.50;60.08;99722.28;4473414;32;20124;-88
2023/05/07 00:27:12;;;;;;;13.15;5.37;;;;;;;16.77;60.11;99719.03;4457550;32;24985;-88
2023/05/07 00:29:37;;;;;;;9.38;5.40;;;;;;;16.62;60.10;99725.16;4471019;32;20076;-89
2023/05/07 00:32:02;;;;;;;6.47;4.50;;;;;;;16.44;60.08;99716.53;4457983;32;20131;-88
2023/05/07 00:34:28;;;;;;;7.78;4.93;;;;;;;16.44;60.08;99722.62;4457682;32;20161;-88
2023/05/07 00:36:53;;;;;;;6.97;5.10;;;;;;;16.36;60.07;99724.84;4483189;32;29871;-89
2023/05/07 00:39:18;;;;;;;7.82;4.95;;;;;;;16.42;60.08;99723.66;4457939;32;20144;-89
2023/05/07 00:41:44;;;;;;;9.57;4.43;;;;;;;16.43;60.08;99723.56;4472492;32;26901;-89
2023/05/07 00:44:10;;;;;;;7.30;4.25;;;;;;;16.50;60.08;99717.03;4485948;32;20147;-89
2023/05/07 00:46:35;;;;;;;5.32;4.15;;;;;;;16.40;60.08;99718.50;4485941;32;20093;-89
2023/05/07 00:49:00;;;;;;;5.47;4.05;;;;;;;16.32;60.08;99722.47;4472457;32;21355;-88
2023/05/07 00:51:27;;;;;;;5.57;4.18;;;;;;;16.24;60.08;99726.37;4485550;32;28120;-89
2023/05/07 00:53:53;;;;;;;4.68;3.75;;;;;;;16.23;60.08;99724.69;4485599;32;20347;-88
2023/05/07 00:56:18;;;;;;;4.70;3.95;;;;;;;16.27;60.08;99726.19;4470106;32;20141;-88
2023/05/07 00:58:52;;;;;;;7.43;4.18;;;;;;;16.19;60.07;99727.56;4472574;32;20120;-88
2023/05/07 01:01:18;;;;;;;6.47;4.20;;;;;;;16.12;60.07;99732.31;4459305;32;20130;-89
2023/05/07 01:03:46;;;;;;;6.62;4.75;;;;;;;16.10;60.06;99725.47;4459222;32;20482;-90
2023/05/07 01:06:12;;;;;;;6.03;4.22;;;;;;;16.01;60.06;99732.03;4472897;32;20156;-89
2023/05/07 01:08:39;;;;;;;7.35;5.00;;;;;;;16.29;60.07;99723.47;4459579;32;20504;-90
2023/05/07 01:11:05;;;;;;;6.57;4.85;;;;;;;16.24;60.06;99725.53;4459995;32;20112;-90
2023/05/07 01:13:30;;;;;;;6.35;4.68;;;;;;;16.21;60.07;99723.06;4459472;32;20105;-90
2023/05/07 01:15:56;;;;;;;8.23;5.10;;;;;;;15.95;60.06;99724.50;4459306;32;20132;-89
2023/05/07 01:18:22;;;;;;;6.78;5.15;;;;;;;15.92;60.05;99724.69;4458915;31;20419;-89
2023/05/07 01:20:47;;;;;;;9.77;5.68;;;;;;;15.84;60.04;99725.06;4478263;32;20129;-89
2023/05/07 01:23:12;;;;;;;6.85;5.32;;;;;;;15.91;60.05;99723.81;4468994;32;20389;-87
2023/05/07 01:25:38;;;;;;;8.98;5.45;;;;;;;15.83;60.05;99725.16;4459450;32;20141;-88
2023/05/07 01:28:03;;;;;;;9.60;5.60;;;;;;;15.83;60.05;99733.03;4472003;32;20158;-88
2023/05/07 01:30:29;;;;;;;8.63;5.68;;;;;;;15.97;60.05;99741.03;4472729;32;20130;-88
2023/05/07 01:33:06;;;;;;;6.43;4.60;;;;;;;15.90;60.05;99743.13;4458858;32;20472;-88
2023/05/07 01:35:38;;;;;;;9.57;5.07;;;;;;;16.19;60.07;99735.44;4472660;32;20157;-88
2023/05/07 01:38:04;;;;;;;6.85;4.55;;;;;;;15.88;60.06;99731.03;4469935;32;20111;-88
2023/05/07 01:40:30;;;;;;;6.82;5.15;;;;;;;15.88;60.05;99733.66;4480262;32;20092;-88
2023/05/07 01:42:55;;;;;;;7.97;4.97;;;;;;;15.98;60.06;99739.25;4459454;32;20154;-88
2023/05/07 01:45:20;;;;;;;9.38;4.82;;;;;;;16.02;60.07;99740.75;4484827;32;28878;-87
2023/05/07 01:47:46;;;;;;;11.68;4.75;;;;;;;15.94;60.06;99736.78;4471633;32;29700;-88
2023/05/07 01:50:11;;;;;;;7.15;4.85;;;;;;;15.93;60.05;99736.88;4472374;32;20104;-88
2023/05/07 01:52:38;;;;;;;6.18;4.78;;;;;;;15.77;60.04;99738.62;4471847;32;20120;-88
2023/05/07 01:55:04;;;;;;;9.02;4.62;;;;;;;15.74;60.04;99728.28;4472435;32;20085;-88
2023/05/07 01:57:30;;;;;;;6.40;4.50;;;;;;;15.71;60.05;99733.69;4485578;32;20376;-88
2023/05/07 01:59:55;;;;;;;6.32;4.50;;;;;;;15.41;60.03;99723.03;4486827;31;20139;-88
2023/05/07 02:02:20;;;;;;;7.37;5.05;;;;;;;15.29;60.02;99724.50;4472190;32;20104;-88
2023/05/07 02:04:46;;;;;;;7.60;4.65;;;;;;;15.29;60.02;99727.97;4471735;32;27681;-88
2023/05/07 02:07:11;;;;;;;6.85;4.80;;;;;;;15.46;60.02;99721.84;4472391;32;20382;-88
2023/05/07 02:09:37;;;;;;;8.60;5.03;;;;;;;15.26;60.02;99717.63;4484609;32;31783;-88
2023/05/07 02:12:03;;;;;;;7.45;4.62;;;;;;;15.16;60.02;99721.66;4472172;32;20124;-88
2023/05/07 02:14:28;;;;;;;8.80;5.22;;;;;;;15.30;60.02;99718.31;4472071;32;20119;-88
2023/05/07 02:16:54;;;;;;;8.32;5.03;;;;;;;15.28;60.02;99722.78;4476042;31;20111;-88
2023/05/07 02:19:20;;;;;;;8.90;4.90;;;;;;;15.36;60.03;99716.22;4469001;32;22864;-88
2023/05/07 02:21:46;;;;;;;7.03;4.57;;;;;;;15.35;60.02;99716.28;4467735;32;20101;-88
2023/05/07 02:24:12;;;;;;;6.03;4.30;;;;;;;15.20;60.01;99717.97;4465110;32;20444;-87
2023/05/07 02:26:37;;;;;;;6.22;4.60;;;;;;;15.22;60.01;99718.72;4458775;32;20144;-88
2023/05/07 02:29:02;;;;;;;5.60;4.62;;;;;;;14.95;60.00;99714.88;4485103;32;20150;-88
2023/05/07 02:31:28;;;;;;;7.18;4.85;;;;;;;14.81;60.00;99712.09;4472118;32;20108;-88
2023/05/07 02:33:53;;;;;;;6.50;4.55;;;;;;;14.67;59.99;99716.28;4458721;32;21978;-88
2023/05/07 02:36:19;;;;;;;6.45;4.40;;;;;;;14.79;60.00;99714.81;4485033;32;20379;-87
2023/05/07 02:38:44;;;;;;;6.40;4.45;;;;;;;14.72;59.99;99716.03;4469357;32;20140;-87
2023/05/07 02:41:10;;;;;;;10.50;4.75;;;;;;;14.63;59.98;99711.22;4483350;32;20100;-87
2023/05/07 02:43:36;;;;;;;7.82;5.18;;;;;;;14.61;59.99;99715.69;4486328;32;20161;-88
2023/05/07 02:46:05;;;;;;;6.85;5.18;;;;;;;14.55;59.98;99714.22;4485004;32;20088;-88
2023/05/07 02:48:31;;;;;;;7.22;5.53;;;;;;;14.54;59.98;99719.56;4485003;32;20131;-88
2023/05/07 02:50:57;;;;;;;7.53;5.72;;;;;;;14.69;59.98;99714.41;4471478;32;24500;-89
2023/05/07 02:53:22;;;;;;;8.40;5.85;;;;;;;14.81;60.00;99714.72;4471961;32;20100;-89
2023/05/07 02:55:47;;;;;;;7.93;6.00;;;;;;;14.94;59.99;99713.19;4484775;32;20089;-88
2023/05/07 02:58:13;;;;;;;11.27;6.75;;;;;;;14.87;60.00;99719.66;4485049;32;20743;-88
2023/05/07 03:00:38;;;;;;;9.95;6.32;;;;;;;14.71;59.98;99719.59;4458859;32;20487;-88
2023/05/07 03:03:04;;;;;;;10.30;7.00;;;;;;;14.55;59.98;99721.25;4485259;32;20111;-88
2023/05/07 03:05:30;;;;;;;12.77;6.75;;;;;;;14.83;59.99;99711.09;4454870;32;20131;-88
2023/05/07 03:07:55;;;;;;;12.25;6.82;;;;;;;14.78;59.99;99714.88;4451670;32;20412;-87
2023/05/07 03:10:20;;;;;;;10.38;6.50;;;;;;;14.81;59.99;99707.72;4471744;32;20108;-88
2023/05/07 03:12:46;;;;;;;9.00;6.40;;;;;;;14.85;59.99;99709.25;4484587;32;20100;-87
2023/05/07 03:15:12;;;;;;;9.25;6.15;;;;;;;14.90;60.00;99715.09;4485655;32;20167;-88
2023/05/07 03:17:38;;;;;;;11.52;5.97;;;;;;;14.70;59.98;99710.03;4472077;32;20569;-87
2023/05/07 03:20:04;;;;;;;9.50;5.82;;;;;;;14.66;59.99;99705.84;4484841;32;20096;-88
2023/05/07 03:22:29;;;;;;;11.65;7.07;;;;;;;14.81;60.00;99712.09;4476773;32;20107;-88
2023/05/07 03:24:54;;;;;;;10.77;7.25;;;;;;;14.90;59.99;99714.25;4472070;32;20170;-88
2023/05/07 03:27:20;;;;;;;10.20;7.18;;;;;;;14.83;59.99;99718.09;4458686;32;20140;-89
2023/05/07 03:29:45;;;;;;;9.68;6.60;;;;;;;15.00;60.00;99718.97;4469258;32;20410;-88
2023/05/07 03:32:11;;;;;;;7.07;5.22;;;;;;;14.69;59.98;99718.81;4477116;32;20399;-87
2023/05/07 03:34:36;;;;;;;8.35;5.03;;;;;;;14.78;59.99;99712.25;4471032;32;20088;-87
2023/05/07 03:37:01;;;;;;;5.90;4.43;;;;;;;14.70;59.98;99710.87;4484678;32;20163;-87
2023/05/07 03:39:27;;;;;;;8.07;4.53;;;;;;;14.85;59.99;99719.72;4458067;32;20116;-88
2023/05/07 03:41:52;;;;;;;5.00;3.50;;;;;;;14.66;59.99;99718.94;4471526;32;20346;-89
2023/05/07 03:44:18;;;;;;;5.50;3.67;;;;;;;14.66;59.99;99719.78;4471337;32;20391;-88
2023/05/07 03:46:43;;;;;;;6.87;4.30;;;;;;;14.68;59.99;99722.34;4471377;32;20120;-88
2023/05/07 03:49:08;;;;;;;6.05;3.85;;;;;;;14.66;59.99;99719.78;4471161;32;20107;-88
2023/05/07 03:51:35;;;;;;;9.55;5.18;;;;;;;14.68;59.98;99725.81;4468784;32;20093;-87
2023/05/07 03:54:01;;;;;;;8.93;6.37;;;;;;;14.40;59.98;99731.50;4482067;32;20092;-87
2023/05/07 03:56:27;;;;;;;11.80;7.60;;;;;;;14.41;59.98;99741.03;4484560;32;20400;-88
2023/05/07 03:58:53;;;;;;;8.98;6.18;;;;;;;14.51;59.98;99733.66;4485745;31;20119;-87
2023/05/07 04:01:18;;;;;;;9.45;6.12;;;;;;;14.55;59.98;99736.97;4484349;32;20136;-87
2023/05/07 04:03:44;;;;;;;12.23;7.57;;;;;;;14.63;59.98;99737.44;4471117;32;20512;-87
2023/05/07 04:06:09;;;;;;;11.52;8.02;;;;;;;14.70;59.98;99733.59;4471367;32;20100;-87
2023/05/07 04:08:34;;;;;;;12.25;7.45;;;;;;;14.66;59.98;99729.41;4471263;32;20140;-87
2023/05/07 04:11:00;;;;;;;12.30;8.27;;;;;;;14.74;59.99;99729.91;4468585;32;20144;-87
2023/05/07 04:13:25;;;;;;;11.43;8.25;;;;;;;14.83;59.99;99725.97;4482544;32;20113;-86
2023/05/07 04:15:51;;;;;;;11.95;7.82;;;;;;;14.92;60.00;99733.41;4484883;32;20152;-86
2023/05/07 04:18:17;;;;;;;13.35;8.15;;;;;;;15.05;60.01;99729.22;4470430;32;20170;-87
2023/05/07 04:20:42;;;;;;;11.98;8.07;;;;;;;15.34;60.02;99725.94;4458089;32;20131;-88
2023/05/07 04:23:08;;;;;;;12.80;8.07;;;;;;;15.14;60.01;99730.50;4473613;32;20140;-87
2023/05/07 04:25:33;;;;;;;10.13;7.30;;;;;;;15.34;60.02;99738.22;4468374;32;20159;-86
2023/05/07 04:27:59;;;;;;;11.00;6.05;;;;;;;15.37;60.03;99743.28;4480524;32;25612;-86
2023/05/07 04:30:24;;;;;;;7.95;5.80;;;;;;;15.49;60.03;99737.41;4484251;32;20393;-88
2023/05/07 04:32:50;;;;;;;8.13;5.82;;;;;;;15.31;60.03;99744.47;4457777;32;20112;-89
2023/05/07 04:35:16;;;;;;;7.97;5.45;;;;;;;15.63;60.04;99748.09;4457827;32;20108;-90
2023/05/07 04:37:41;;;;;;;10.13;6.43;;;;;;;15.82;60.05;99747.09;4470564;32;20130;-90
2023/05/07 04:40:07;;;;;;;9.82;6.72;;;;;;;15.98;60.06;99750.59;4457460;32;23503;-90
2023/05/07 04:42:32;;;;;;;10.55;7.10;;;;;;;15.96;60.05;99750.69;4458546;32;20131;-90
2023/05/07 04:44:58;;;;;;;11.02;7.78;;;;;;;16.15;60.07;99749.69;4476182;32;20443;-88
2023/05/07 04:47:23;;;;;;;11.05;7.57;;;;;;;16.22;60.06;99748.41;4484516;32;20140;-88
2023/05/07 04:49:48;;;;;;;9.73;7.28;;;;;;;16.45;60.08;99745.34;4459406;32;20152;-88
2023/05/07 04:52:15;;;;;;;9.65;6.97;;;;;;;16.81;60.10;99738.97;4485123;32;20125;-89
2023/05/07 04:54:40;;;;;;;9.68;7.00;;;;;;;17.11;60.12;99736.34;4476230;32;20127;-88
2023/05/07 04:57:05;;;;;;;9.90;6.68;;;;;;;17.25;60.12;99736.34;4454766;32;20672;-88
2023/05/07 04:59:32;;;;;;;10.70;7.07;;;;;;;17.38;60.12;99736.47;4457543;32;20733;-88
2023/05/07 05:01:57;;;;;;;6.22;5.00;;;;;;;17.65;60.14;99739.22;4483694;32;20141;-89
2023/05/07 05:04:22;;;;;;;8.77;5.82;;;;;;;17.80;60.15;99740.94;4470669;32;20437;-89
2023/05/07 05:06:48;;;;;;;6.85;5.15;;;;;;;17.76;60.14;99742.91;4468413;32;20438;-88
2023/05/07 05:09:14;;;;;;;8.02;5.20;;;;;;;17.71;60.15;99736.22;4470019;32;20169;-88
2023/05/07 05:11:39;;;;;;;6.60;4.90;;;;;;;17.86;60.16;99737.06;4483214;32;20114;-92
2023/05/07 05:14:05;;;;;;;7.32;4.60;;;;;;;17.98;60.16;99742.44;4470440;32;20650;-90
2023/05/07 05:16:30;;;;;;;7.72;4.57;;;;;;;18.06;60.17;99744.59;4470233;32;20122;-89
2023/05/07 05:18:56;;;;;;;8.60;5.03;;;;;;;18.09;60.17;99742.59;4457268;32;20100;-92
2023/05/07 05:21:21;;;;;;;8.15;5.43;;;;;;;18.12;60.17;99738.06;4470128;32;20128;-89
2023/05/07 05:23:47;;;;;;;8.38;5.28;;;;;;;18.16;60.17;99739.56;4476466;32;25293;-90
2023/05/07 05:26:12;;;;;;;8.70;5.87;;;;;;;18.36;60.18;99744.41;4452893;32;20120;-89
2023/05/07 05:28:38;;;;;;;11.27;6.65;;;;;;;18.36;60.18;99736.50;4468529;32;20379;-89
2023/05/07 05:31:04;;;;;;;8.60;6.15;;;;;;;18.39;60.18;99731.88;4468686;32;20108;-91
2023/05/07 05:33:30;;;;;;;8.07;5.93;;;;;;;18.37;60.18;99731.12;4457153;32;20116;-91
2023/05/07 05:35:55;;;;;;;9.70;6.30;;;;;;;18.56;60.19;99732.59;4468892;32;20562;-88
2023/05/07 05:38:21;;;;;;;8.60;6.72;;;;;;;18.75;60.20;99737.53;4472561;32;20115;-88
2023/05/07 05:40:46;;;;;;;9.70;6.32;;;;;;;18.94;60.21;99732.75;4472409;32;20110;-88
2023/05/07 05:43:12;;;;;;;10.07;5.82;;;;;;;19.12;60.22;99725.38;4472379;32;20148;-88
2023/05/07 05:45:37;;;;;;;9.65;5.68;;;;;;;19.13;60.22;99721.78;4486263;32;20511;-87
2023/05/07 05:48:03;;;;;;;9.15;6.12;;;;;;;19.02;60.22;99719.87;4459419;32;20453;-87
2023/05/07 05:50:28;;;;;;;8.20;5.45;;;;;;;19.32;60.23;99717.78;4485525;32;20072;-88
2023/05/07 05:52:54;;;;;;;8.35;5.47;;;;;;;19.21;60.23;99722.12;4469524;32;20169;-88
2023/05/07 05:55:19;;;;;;;9.50;5.80;;;;;;;19.36;60.23;99713.13;4468028;32;20797;-88
2023/05/07 05:57:45;;;;;;;8.32;5.97;;;;;;;19.59;60.24;99716.88;4472249;32;20455;-88
2023/05/07 06:00:10;;;;;;;7.87;5.87;;;;;;;19.71;60.25;99721.31;4460656;32;20081;-89
2023/05/07 06:02:36;;;;;;;7.65;4.90;;;;;;;19.74;60.25;99718.44;4463099;32;20096;-88
2023/05/07 06:05:01;;;;;;;8.10;5.20;;;;;;;19.98;60.26;99725.59;4484575;32;20160;-88
2023/05/07 06:07:27;;;;;;;7.70;5.07;;;;;;;20.02;60.27;99722.62;4484739;32;20455;-87
2023/05/07 06:09:52;;;;;;;8.02;4.70;;;;;;;20.14;60.27;99718.25;4485740;32;23973;-87
2023/05/07 06:12:17;;;;;;;6.93;4.85;;;;;;;20.24;60.27;99724.56;4474452;32;20100;-86
2023/05/07 06:14:43;;;;;;;5.32;4.28;;;;;;;20.48;60.30;99708.75;4486376;32;20439;-88
2023/05/07 06:17:09;;;;;;;6.22;4.68;;;;;;;20.63;60.31;99717.34;4474739;32;20097;-87
2023/05/07 06:19:34;;;;;;;5.68;4.57;;;;;;;20.64;60.30;99721.69;4472129;32;20432;-87
2023/05/07 06:22:01;;;;;;;6.93;3.45;;;;;;;20.90;60.31;99717.09;4472084;32;20165;-88
2023/05/07 06:24:27;;;;;;;5.12;3.55;;;;;;;21.15;60.32;99716.94;4459182;32;20487;-87
2023/05/07 06:26:52;;;;;;;4.40;3.30;;;;;;;21.36;60.34;99715.31;4485663;31;24411;-87
2023/05/07 06:29:17;;;;;;;4.03;3.28;;;;;;;21.71;60.36;99711.72;4484319;32;32081;-88
2023/05/07 06:31:43;;;;;;;7.03;2.92;;;;;;;21.64;60.36;99714.00;4471921;32;20453;-87
2023/05/07 06:34:08;;;;;;;3.67;2.83;;;;;;;21.87;60.36;99719.31;4471443;32;20726;-87
2023/05/07 06:36:34;;;;;;;2.72;2.05;;;;;;;22.28;60.39;99716.88;4486307;31;20144;-87
2023/05/07 06:38:59;;;;;;;2.95;2.50;;;;;;;22.41;60.39;99718.50;4472015;32;20771;-88
2023/05/07 06:41:25;;;;;;;3.87;2.20;;;;;;;22.55;60.39;99713.78;4474289;32;20446;-87
2023/05/07 06:43:51;;;;;;;2.83;2.45;;;;;;;22.63;60.40;99713.13;4486316;32;20096;-88
2023/05/07 06:46:16;;;;;;;3.22;2.28;;;;;;;22.80;60.42;99717.91;4484095;32;32013;-88
2023/05/07 06:48:41;;;;;;;3.85;2.42;;;;;;;22.96;60.42;99715.69;4458632;32;20121;-88
2023/05/07 06:51:07;;;;;;;3.37;2.50;;;;;;;22.98;60.42;99714.72;4479670;32;27847;-88
2023/05/07 06:53:32;;;;;;;4.10;2.67;;;;;;;23.30;60.44;99722.59;4480441;32;20099;-88
2023/05/07 06:55:58;;;;;;;4.82;2.62;;;;;;;23.29;60.44;99719.13;4484859;32;20305;-88
2023/05/07 06:58:23;;;;;;;4.55;2.80;;;;;;;23.25;60.44;99715.88;4471653;32;20534;-88
2023/05/07 07:00:48;;;;;;;3.40;2.65;;;;;;;23.44;60.45;99719.63;4484685;32;20113;-88
2023/05/07 07:03:14;;;;;;;3.17;2.45;;;;;;;23.28;60.44;99714.78;4471899;32;20448;-88
2023/05/07 07:05:43;;;;;;;3.08;2.30;;;;;;;23.32;60.43;99721.50;4471599;32;20389;-88
2023/05/07 07:08:09;;;;;;;2.67;2.20;;;;;;;23.49;60.45;99726.22;4462169;32;20085;-88
2023/05/07 07:10:34;;;;;;;3.53;2.65;;;;;;;23.74;60.46;99737.41;4484161;32;20143;-88
2023/05/07 07:13:00;;;;;;;4.53;3.00;;;;;;;23.74;60.46;99737.41;4484880;32;20389;-87
2023/05/07 07:15:26;;;;;;;3.97;3.08;;;;;;;23.70;60.47;99739.50;4483796;32;34072;-88
2023/05/07 07:17:51;;;;;;;5.57;2.90;;;;;;;23.82;60.47;99742.91;4485016;32;20123;-88
2023/05/07 07:20:16;;;;;;;3.85;2.97;;;;;;;24.08;60.48;99748.59;4479880;32;20145;-88
2023/05/07 07:22:42;;;;;;;4.20;3.08;;;;;;;24.09;60.48;99751.13;4452548;32;20445;-86
2023/05/07 07:25:08;;;;;;;5.55;3.40;;;;;;;24.23;60.49;99759.72;4484262;32;20096;-86
2023/05/07 07:27:33;;;;;;;5.43;3.85;;;;;;;24.38;60.49;99758.38;4471644;32;20453;-86
2023/05/07 07:29:59;;;;;;;8.52;5.93;;;;;;;24.24;60.49;99761.38;4471604;32;20104;-86
2023/05/07 07:32:25;;;;;;;6.90;5.25;;;;;;;23.90;60.47;99764.37;4471694;32;20476;-88
2023/05/07 07:34:50;;;;;;;9.80;5.55;;;;;;;23.72;60.46;99757.97;4461300;32;20802;-86
2023/05/07 07:37:16;;;;;;;7.43;5.68;;;;;;;23.64;60.46;99766.59;4474573;32;30406;-87
2023/05/07 07:39:42;;;;;;;7.72;6.37;;;;;;;23.68;60.47;99773.34;4473523;32;20148;-88
2023/05/07 07:42:07;;;;;;;7.07;5.50;;;;;;;23.67;60.46;99778.81;4471568;32;20108;-87
2023/05/07 07:44:32;;;;;;;8.30;6.40;;;;;;;23.64;60.46;99779.03;4470710;32;30138;-88
2023/05/07 07:46:58;;;;;;;8.05;5.72;;;;;;;23.57;60.46;99781.38;4470873;32;20109;-88
2023/05/07 07:49:23;;;;;;;7.78;6.50;;;;;;;23.49;60.45;99784.66;4468369;32;31379;-87
2023/05/07 07:51:49;;;;;;;9.50;7.15;;;;;;;23.60;60.46;99775.81;4478310;32;20140;-88
2023/05/07 07:54:14;;;;;;;11.10;7.55;;;;;;;23.66;60.45;99779.75;4475273;32;20178;-88
2023/05/07 07:56:39;;;;;;;10.48;7.28;;;;;;;23.63;60.46;99777.34;4470499;32;34250;-88
2023/05/07 07:59:05;;;;;;;12.52;6.95;;;;;;;23.54;60.45;99779.81;4485593;31;20124;-88
2023/05/07 08:01:30;;;;;;;8.93;7.07;;;;;;;23.47;60.45;99781.31;4484452;32;20149;-89
2023/05/07 08:03:58;;;;;;;8.75;6.70;;;;;;;23.30;60.45;99776.56;4457961;32;20143;-90
2023/05/07 08:06:23;;;;;;;11.80;7.60;;;;;;;23.17;60.43;99776.75;4458674;32;20164;-88
2023/05/07 08:08:49;;;;;;;10.25;7.40;;;;;;;23.18;60.43;99777.59;4455424;32;20444;-89
2023/05/07 08:11:14;;;;;;;11.50;6.90;;;;;;;22.96;60.42;99775.91;4477802;32;20152;-89
2023/05/07 08:13:40;;;;;;;8.80;6.53;;;;;;;22.96;60.42;99775.91;4458092;32;20149;-90
2023/05/07 08:16:05;;;;;;;8.75;6.80;;;;;;;22.93;60.42;99779.63;4471153;32;20191;-89
2023/05/07 08:18:30;;;;;;;7.72;5.45;;;;;;;22.95;60.42;99768.91;4483602;31;20382;-89
2023/05/07 08:20:56;;;;;;;9.93;6.70;;;;;;;23.07;60.43;99765.22;4471149;32;20124;-88
2023/05/07 08:23:22;;;;;;;8.70;6.55;;;;;;;23.31;60.44;99772.09;4470544;32;20148;-88
2023/05/07 08:25:48;;;;;;;7.10;5.55;;;;;;;23.27;60.45;99764.41;4468464;32;20084;-89
2023/05/07 08:28:14;;;;;;;9.15;6.45;;;;;;;23.36;60.45;99765.41;4482626;32;20116;-89
2023/05/07 08:30:40;;;;;;;7.75;5.72;;;;;;;23.28;60.44;99759.94;4470966;32;20373;-88
2023/05/07 08:33:05;;;;;;;8.93;7.00;;;;;;;23.23;60.44;99764.78;4470893;32;20506;-89
2023/05/07 08:35:31;;;;;;;10.25;5.70;;;;;;;23.29;60.45;99772.22;4470549;32;20401;-88
2023/05/07 08:37:56;;;;;;;8.55;6.07;;;;;;;23.24;60.44;99774.44;4470774;32;20104;-89
2023/05/07 08:40:25;;;;;;;7.60;5.95;;;;;;;23.33;60.44;99775.47;4470901;32;20123;-90
2023/05/07 08:42:52;;;;;;;9.23;6.45;;;;;;;23.47;60.45;99777.81;4483754;32;20080;-89
2023/05/07 08:45:17;;;;;;;9.45;5.95;;;;;;;23.52;60.45;99775.59;4468023;32;20449;-89
2023/05/07 08:47:46;;;;;;;7.55;5.70;;;;;;;23.67;60.47;99781.47;4468826;32;20144;-89
2023/05/07 08:50:12;;;;;;;9.13;6.47;;;;;;;23.89;60.47;99775.94;4471314;32;20471;-89
2023/05/07 08:52:37;;;;;;;6.50;5.22;;;;;;;24.04;60.48;99774.63;4470706;32;20104;-89
2023/05/07 08:55:03;;;;;;;7.87;5.05;;;;;;;24.34;60.50;99771.09;4470182;32;20144;-89
2023/05/07 08:57:29;;;;;;;8.35;5.53;;;;;;;24.38;60.51;99771.69;4479464;32;20101;-88
2023/05/07 08:59:54;;;;;;;6.30;5.20;;;;;;;24.61;60.51;99778.47;4470561;32;20142;-89
2023/05/07 09:02:20;;;;;;;5.80;5.00;;;;;;;24.89;60.53;99770.63;4485105;31;20468;-89
2023/05/07 09:04:46;;;;;;;6.25;4.97;;;;;;;25.24;60.54;99765.59;4485584;32;20405;-90
2023/05/07 09:07:11;;;;;;;8.93;5.43;;;;;;;25.19;60.54;99759.84;4485587;32;20109;-89
2023/05/07 09:09:36;;;;;;;10.15;5.05;;;;;;;24.88;60.52;99769.78;4459145;32;22327;-89
2023/05/07 09:12:03;;;;;;;7.40;4.47;;;;;;;24.70;60.52;99766.13;4484903;32;21186;-89
2023/05/07 09:14:30;;;;;;;5.15;4.12;;;;;;;24.50;60.51;99770.59;4450737;32;20156;-90
2023/05/07 09:16:55;;;;;;;4.80;4.05;;;;;;;24.37;60.51;99775.31;4456942;32;20149;-91
2023/05/07 09:19:24;;;;;;;6.40;4.35;;;;;;;24.51;60.51;99768.75;4465998;32;20146;-88
2023/05/07 09:21:50;;;;;;;8.38;4.78;;;;;;;24.61;60.51;99775.81;4472325;32;20092;-89
2023/05/07 09:24:16;;;;;;;6.47;4.85;;;;;;;24.61;60.51;99777.63;4472585;32;20135;-88
2023/05/07 09:26:42;;;;;;;6.40;4.50;;;;;;;24.64;60.51;99769.34;4459398;32;20155;-89
2023/05/07 09:29:07;;;;;;;9.15;4.65;;;;;;;24.92;60.53;99773.84;4475841;32;20506;-89
2023/05/07 09:31:36;;;;;;;6.05;4.35;;;;;;;25.20;60.54;99768.69;4470875;32;24813;-90
2023/05/07 09:34:02;;;;;;;5.37;4.33;;;;;;;25.47;60.56;99760.78;4472392;32;20118;-89
2023/05/07 09:36:27;;;;;;;4.12;3.72;;;;;;;25.66;60.57;99763.41;4472310;32;20112;-90
2023/05/07 09:38:53;;;;;;;5.10;3.95;;;;;;;25.60;60.57;99757.81;4459159;32;20147;-87
2023/05/07 09:41:18;;;;;;;4.95;3.55;;;;;;;25.61;60.56;99773.66;4448804;32;20131;-87
2023/05/07 09:43:43;;;;;;;5.47;3.90;;;;;;;25.72;60.58;99766.50;4485380;32;20116;-87
2023/05/07 09:46:13;;;;;;;5.97;3.97;;;;;;;26.04;60.59;99758.09;4472099;32;20408;-88
2023/05/07 09:48:42;;;;;;;4.47;3.92;;;;;;;26.23;60.60;99764.16;4469633;32;20132;-88
2023/05/07 09:51:39;;;;;;;7.57;4.30;;;;;;;26.15;60.59;99757.91;4469697;32;20119;-86
2023/05/07 09:54:04;;;;;;;4.95;3.95;;;;;;;26.16;60.60;99763.09;4485243;32;20160;-89
2023/05/07 09:56:30;;;;;;;5.05;4.05;;;;;;;26.03;60.60;99764.44;4485076;32;20395;-87
2023/05/07 09:58:57;;;;;;;6.20;4.60;;;;;;;25.97;60.58;99763.16;4472068;32;20511;-88
2023/05/07 10:01:22;;;;;;;5.55;4.47;;;;;;;25.90;60.58;99770.94;4459256;32;20108;-87
2023/05/07 10:03:48;;;;;;;7.80;5.25;;;;;;;25.76;60.57;99775.88;4474312;32;20135;-86
2023/05/07 10:06:13;;;;;;;6.90;4.97;;;;;;;25.72;60.57;99783.34;4485448;32;20131;-88
2023/05/07 10:08:39;;;;;;;5.85;4.95;;;;;;;25.40;60.56;99781.84;4471481;32;32639;-88
2023/05/07 10:11:04;;;;;;;6.87;5.05;;;;;;;25.25;60.55;99780.59;4459264;32;20136;-88
2023/05/07 10:13:30;;;;;;;10.90;5.32;;;;;;;25.10;60.54;99776.69;4471695;32;20122;-87
2023/05/07 10:15:55;;;;;;;8.65;5.32;;;;;;;25.11;60.54;99782.88;4456359;32;20112;-87
2023/05/07 10:18:29;;;;;;;10.25;6.05;;;;;;;24.94;60.53;99779.87;4482142;31;20093;-87
2023/05/07 10:20:54;;;;;;;6.87;5.18;;;;;;;24.82;60.52;99777.47;4460695;32;20093;-87
2023/05/07 10:23:23;;;;;;;7.15;5.07;;;;;;;24.83;60.53;99780.00;4471986;32;20104;-87
2023/05/07 10:25:48;;;;;;;9.13;5.30;;;;;;;24.43;60.51;99785.41;4477838;32;20104;-88
2023/05/07 10:28:14;;;;;;;6.20;4.95;;;;;;;24.64;60.52;99780.84;4447154;32;20092;-89
2023/05/07 10:31:02;;;;;;;7.55;4.47;;;;;;;24.57;60.51;99787.66;4463713;32;20618;-89
2023/05/07 10:33:28;;;;;;;6.78;4.72;;;;;;;24.46;60.51;99787.81;4463182;32;20136;-88
2023/05/07 10:35:57;;;;;;;5.43;4.22;;;;;;;24.79;60.53;99783.94;4458955;32;20217;-89
2023/05/07 10:38:22;;;;;;;5.35;3.70;;;;;;;24.93;60.53;99782.69;4485228;32;20506;-89
2023/05/07 10:40:48;;;;;;;4.55;3.60;;;;;;;25.05;60.53;99785.09;4484991;32;20139;-90
2023/05/07 10:43:13;;;;;;;9.48;3.50;;;;;;;25.20;60.54;99774.84;4459112;32;20115;-88
2023/05/07 10:45:38;;;;;;;4.15;3.15;;;;;;;25.20;60.55;99777.50;4471620;32;20108;-89
2023/05/07 10:48:16;;;;;;;4.47;3.15;;;;;;;25.31;60.56;99771.19;4471560;32;20120;-89
2023/05/07 10:50:42;;;;;;;7.45;4.05;;;;;;;25.34;60.56;99771.75;4469964;32;20143;-87
2023/05/07 10:53:17;;;;;;;5.10;3.78;;;;;;;25.29;60.55;99765.16;4476283;32;20088;-88
2023/05/07 10:55:43;;;;;;;7.07;4.10;;;;;;;25.20;60.54;99768.69;4486029;31;20156;-87
2023/05/07 10:58:20;;;;;;;4.10;3.58;;;;;;;25.18;60.55;99766.16;4486046;31;20160;-88
2023/05/07 11:00:46;;;;;;;6.20;3.40;;;;;;;25.11;60.55;99766.88;4470226;32;20111;-87
2023/05/07 11:03:11;;;;;;;4.03;3.10;;;;;;;25.37;60.55;99760.81;4465121;32;20096;-88
2023/05/07 11:05:37;;;;;;;3.75;2.42;;;;;;;25.58;60.57;99763.28;4458337;32;24497;-88
2023/05/07 11:08:03;;;;;;;3.55;2.53;;;;;;;25.53;60.58;99760.19;4484967;32;20556;-88
2023/05/07 11:10:47;;;;;;;3.47;2.47;;;;;;;25.62;60.58;99754.00;4484907;32;20088;-87
2023/05/07 11:13:13;;;;;;;4.75;3.65;;;;;;;25.67;60.58;99751.78;4486178;32;20072;-87
2023/05/07 11:15:41;;;;;;;4.00;3.20;;;;;;;25.94;60.59;99752.78;4471665;32;20421;-88
2023/05/07 11:18:07;;;;;;;3.95;2.37;;;;;;;26.18;60.60;99746.91;4457218;32;20109;-88
2023/05/07 11:20:46;;;;;;;4.05;2.55;;;;;;;26.30;60.60;99748.41;4458196;32;21932;-89
2023/05/07 11:23:33;;;;;;;2.20;1.90;;;;;;;26.52;60.62;99750.69;4469073;32;20110;-88
2023/05/07 11:26:05;;;;;;;1.87;1.77;;;;;;;26.78;60.63;99750.78;4469279;32;20116;-87